Terminal Aerodrome Forecast
Issued by NWS

Home | Current Version | Previous Version | Graphics & Text | Print | Product List | Glossary On
Versions: 1 2 3 4 5 6 7 8 9 10 11 12 13 14 15 16 17 18 19 20 21
000
FTUS42 KMHX 142332
TAFOAJ
TAF
KOAJ 142332Z 1500/1524 16004KT P6SM SCT015 BKN250
     FM150600 00000KT 5SM BR SCT005 BKN150
     FM150800 00000KT 3/4SM BR BKN007
     FM151000 00000KT 1/4SM FG BKN004
     FM151230 00000KT 3SM BR BKN009
     FM151400 00000KT P6SM BKN020
     FM151800 16003KT P6SM VCSH BKN035
      AMD LTD TO CLD VIS AND WIND=

USA.gov is the U.S. government's official web portal to all federal, state and local government web resources and services.